sensor_id;sensor_type;location;lat;lon;timestamp;P1;durP1;ratioP1;P2;durP2;ratioP2
71343;SDS011;59146;43.850;25.948;2022-11-10T00:00:28;90.50;;;54.03;;
71343;SDS011;59146;43.850;25.948;2022-11-10T00:02:58;91.93;;;54.90;;
71343;SDS011;59146;43.850;25.948;2022-11-10T00:05:25;96.60;;;53.43;;
71343;SDS011;59146;43.850;25.948;2022-11-10T00:07:50;99.45;;;55.85;;
71343;SDS011;59146;43.850;25.948;2022-11-10T00:10:16;103.95;;;57.10;;
71343;SDS011;59146;43.850;25.948;2022-11-10T00:12:41;109.05;;;61.05;;
71343;SDS011;59146;43.850;25.948;2022-11-10T00:15:07;88.38;;;53.70;;
71343;SDS011;59146;43.850;25.948;2022-11-10T00:17:52;94.13;;;53.83;;
71343;SDS011;59146;43.850;25.948;2022-11-10T00:20:18;99.00;;;55.90;;
71343;SDS011;59146;43.850;25.948;2022-11-10T00:22:43;99.72;;;55.65;;
71343;SDS011;59146;43.850;25.948;2022-11-10T00:25:09;98.60;;;55.67;;
71343;SDS011;59146;43.850;25.948;2022-11-10T00:27:34;114.20;;;58.45;;
71343;SDS011;59146;43.850;25.948;2022-11-10T00:30:00;108.05;;;55.30;;
71343;SDS011;59146;43.850;25.948;2022-11-10T00:32:25;95.07;;;55.50;;
71343;SDS011;59146;43.850;25.948;2022-11-10T00:34:51;98.05;;;53.60;;
71343;SDS011;59146;43.850;25.948;2022-11-10T00:37:16;87.80;;;54.50;;
71343;SDS011;59146;43.850;25.948;2022-11-10T00:39:42;84.88;;;51.58;;
71343;SDS011;59146;43.850;25.948;2022-11-10T00:42:08;90.97;;;53.83;;
71343;SDS011;59146;43.850;25.948;2022-11-10T00:44:33;95.65;;;52.72;;
71343;SDS011;59146;43.850;25.948;2022-11-10T00:46:59;89.50;;;53.55;;
71343;SDS011;59146;43.850;25.948;2022-11-10T00:49:24;91.15;;;50.00;;
71343;SDS011;59146;43.850;25.948;2022-11-10T00:51:51;83.82;;;48.40;;
71343;SDS011;59146;43.850;25.948;2022-11-10T00:54:17;87.88;;;48.08;;
71343;SDS011;59146;43.850;25.948;2022-11-10T00:56:42;85.10;;;49.28;;
71343;SDS011;59146;43.850;25.948;2022-11-10T00:59:08;95.30;;;52.55;;
71343;SDS011;59146;43.850;25.948;2022-11-10T01:01:33;99.13;;;53.20;;
71343;SDS011;59146;43.850;25.948;2022-11-10T01:03:59;95.95;;;54.28;;
71343;SDS011;59146;43.850;25.948;2022-11-10T01:06:24;98.32;;;52.60;;
71343;SDS011;59146;43.850;25.948;2022-11-10T01:08:50;99.68;;;55.22;;
71343;SDS011;59146;43.850;25.948;2022-11-10T01:11:16;90.60;;;56.92;;
71343;SDS011;59146;43.850;25.948;2022-11-10T01:13:44;100.95;;;55.17;;
71343;SDS011;59146;43.850;25.948;2022-11-10T01:16:17;89.80;;;51.58;;
71343;SDS011;59146;43.850;25.948;2022-11-10T01:18:51;84.25;;;49.67;;
71343;SDS011;59146;43.850;25.948;2022-11-10T01:21:19;86.00;;;49.72;;
71343;SDS011;59146;43.850;25.948;2022-11-10T01:23:45;89.40;;;52.80;;
71343;SDS011;59146;43.850;25.948;2022-11-10T01:26:11;98.78;;;54.08;;
71343;SDS011;59146;43.850;25.948;2022-11-10T01:28:37;90.25;;;54.97;;
71343;SDS011;59146;43.850;25.948;2022-11-10T01:31:04;97.82;;;51.92;;
71343;SDS011;59146;43.850;25.948;2022-11-10T01:33:33;90.15;;;53.95;;
71343;SDS011;59146;43.850;25.948;2022-11-10T01:35:59;82.80;;;52.53;;
71343;SDS011;59146;43.850;25.948;2022-11-10T01:38:26;85.88;;;51.08;;
71343;SDS011;59146;43.850;25.948;2022-11-10T01:40:56;82.95;;;48.88;;
71343;SDS011;59146;43.850;25.948;2022-11-10T01:43:22;73.28;;;45.47;;
71343;SDS011;59146;43.850;25.948;2022-11-10T01:45:50;73.22;;;41.85;;
71343;SDS011;59146;43.850;25.948;2022-11-10T01:50:57;70.88;;;43.42;;
71343;SDS011;59146;43.850;25.948;2022-11-10T01:55:55;75.68;;;41.30;;
71343;SDS011;59146;43.850;25.948;2022-11-10T01:58:23;83.95;;;44.92;;
71343;SDS011;59146;43.850;25.948;2022-11-10T02:00:54;76.15;;;43.90;;
71343;SDS011;59146;43.850;25.948;2022-11-10T02:06:13;76.63;;;47.10;;
71343;SDS011;59146;43.850;25.948;2022-11-10T02:08:41;79.13;;;46.83;;
71343;SDS011;59146;43.850;25.948;2022-11-10T02:11:07;83.88;;;48.03;;
71343;SDS011;59146;43.850;25.948;2022-11-10T02:13:33;92.93;;;53.35;;
71343;SDS011;59146;43.850;25.948;2022-11-10T02:15:58;94.70;;;52.53;;
71343;SDS011;59146;43.850;25.948;2022-11-10T02:18:24;86.25;;;50.85;;
71343;SDS011;59146;43.850;25.948;2022-11-10T02:20:50;84.28;;;47.45;;
71343;SDS011;59146;43.850;25.948;2022-11-10T02:25:56;74.18;;;46.78;;
71343;SDS011;59146;43.850;25.948;2022-11-10T02:28:22;77.18;;;44.60;;
71343;SDS011;59146;43.850;25.948;2022-11-10T02:30:48;68.65;;;42.50;;
71343;SDS011;59146;43.850;25.948;2022-11-10T02:33:14;69.03;;;41.53;;
71343;SDS011;59146;43.850;25.948;2022-11-10T02:35:43;67.78;;;42.33;;
71343;SDS011;59146;43.850;25.948;2022-11-10T02:38:09;71.57;;;42.72;;
71343;SDS011;59146;43.850;25.948;2022-11-10T02:40:34;67.88;;;40.10;;
71343;SDS011;59146;43.850;25.948;2022-11-10T02:43:00;76.50;;;41.03;;
71343;SDS011;59146;43.850;25.948;2022-11-10T02:45:27;72.53;;;41.78;;
71343;SDS011;59146;43.850;25.948;2022-11-10T02:47:52;63.42;;;37.55;;
71343;SDS011;59146;43.850;25.948;2022-11-10T02:50:17;54.78;;;34.08;;
71343;SDS011;59146;43.850;25.948;2022-11-10T02:52:43;65.63;;;35.97;;
71343;SDS011;59146;43.850;25.948;2022-11-10T02:55:08;58.70;;;34.33;;
71343;SDS011;59146;43.850;25.948;2022-11-10T02:57:34;53.30;;;33.28;;
71343;SDS011;59146;43.850;25.948;2022-11-10T02:59:59;65.55;;;39.13;;
71343;SDS011;59146;43.850;25.948;2022-11-10T03:02:24;102.50;;;41.65;;
71343;SDS011;59146;43.850;25.948;2022-11-10T03:04:50;97.47;;;44.33;;
71343;SDS011;59146;43.850;25.948;2022-11-10T03:07:15;389.02;;;54.97;;
71343;SDS011;59146;43.850;25.948;2022-11-10T03:09:41;369.77;;;50.88;;
71343;SDS011;59146;43.850;25.948;2022-11-10T03:12:06;258.27;;;48.55;;
71343;SDS011;59146;43.850;25.948;2022-11-10T03:14:31;175.15;;;48.00;;
71343;SDS011;59146;43.850;25.948;2022-11-10T03:16:57;388.67;;;56.95;;
71343;SDS011;59146;43.850;25.948;2022-11-10T03:19:22;263.73;;;55.70;;
71343;SDS011;59146;43.850;25.948;2022-11-10T03:21:47;352.33;;;57.38;;
71343;SDS011;59146;43.850;25.948;2022-11-10T03:24:13;622.22;;;69.28;;
71343;SDS011;59146;43.850;25.948;2022-11-10T03:26:38;641.17;;;67.15;;
71343;SDS011;59146;43.850;25.948;2022-11-10T03:29:04;392.38;;;60.00;;
71343;SDS011;59146;43.850;25.948;2022-11-10T03:31:29;591.42;;;66.43;;
71343;SDS011;59146;43.850;25.948;2022-11-10T03:33:54;478.17;;;67.22;;
71343;SDS011;59146;43.850;25.948;2022-11-10T03:36:20;372.15;;;60.63;;
71343;SDS011;59146;43.850;25.948;2022-11-10T03:38:45;265.60;;;59.17;;
71343;SDS011;59146;43.850;25.948;2022-11-10T03:41:11;146.15;;;53.47;;
71343;SDS011;59146;43.850;25.948;2022-11-10T03:43:36;179.32;;;54.03;;
71343;SDS011;59146;43.850;25.948;2022-11-10T03:46:01;151.85;;;52.42;;
71343;SDS011;59146;43.850;25.948;2022-11-10T03:48:27;175.18;;;49.95;;
71343;SDS011;59146;43.850;25.948;2022-11-10T03:50:52;101.50;;;47.25;;
71343;SDS011;59146;43.850;25.948;2022-11-10T03:53:18;113.63;;;48.42;;
71343;SDS011;59146;43.850;25.948;2022-11-10T03:55:43;100.40;;;47.03;;
71343;SDS011;59146;43.850;25.948;2022-11-10T03:58:08;80.45;;;45.33;;
71343;SDS011;59146;43.850;25.948;2022-11-10T04:00:34;66.93;;;41.72;;
71343;SDS011;59146;43.850;25.948;2022-11-10T04:02:59;79.55;;;41.00;;
71343;SDS011;59146;43.850;25.948;2022-11-10T04:05:25;52.30;;;31.63;;
71343;SDS011;59146;43.850;25.948;2022-11-10T04:08:12;48.95;;;31.00;;
71343;SDS011;59146;43.850;25.948;2022-11-10T04:10:58;47.05;;;26.73;;
71343;SDS011;59146;43.850;25.948;2022-11-10T04:13:23;41.20;;;26.30;;
71343;SDS011;59146;43.850;25.948;2022-11-10T04:16:07;50.65;;;27.05;;
71343;SDS011;59146;43.850;25.948;2022-11-10T04:18:33;44.13;;;27.10;;
71343;SDS011;59146;43.850;25.948;2022-11-10T04:20:59;43.45;;;28.70;;
71343;SDS011;59146;43.850;25.948;2022-11-10T04:23:27;43.10;;;27.00;;
71343;SDS011;59146;43.850;25.948;2022-11-10T04:26:05;39.83;;;24.02;;
71343;SDS011;59146;43.850;25.948;2022-11-10T04:28:51;40.88;;;24.38;;
71343;SDS011;59146;43.850;25.948;2022-11-10T04:31:20;38.80;;;24.77;;
71343;SDS011;59146;43.850;25.948;2022-11-10T04:33:46;41.50;;;22.48;;
71343;SDS011;59146;43.850;25.948;2022-11-10T04:36:14;34.08;;;22.17;;
71343;SDS011;59146;43.850;25.948;2022-11-10T04:38:43;41.58;;;22.48;;
71343;SDS011;59146;43.850;25.948;2022-11-10T04:41:08;39.10;;;23.15;;
71343;SDS011;59146;43.850;25.948;2022-11-10T04:43:34;36.10;;;23.08;;
71343;SDS011;59146;43.850;25.948;2022-11-10T04:46:01;38.35;;;22.60;;
71343;SDS011;59146;43.850;25.948;2022-11-10T04:48:28;40.70;;;23.45;;
71343;SDS011;59146;43.850;25.948;2022-11-10T04:50:54;42.60;;;23.50;;
71343;SDS011;59146;43.850;25.948;2022-11-10T04:53:20;39.08;;;24.05;;
71343;SDS011;59146;43.850;25.948;2022-11-10T04:55:46;50.10;;;24.73;;
71343;SDS011;59146;43.850;25.948;2022-11-10T04:58:12;44.60;;;25.05;;
71343;SDS011;59146;43.850;25.948;2022-11-10T05:00:38;44.42;;;24.73;;
71343;SDS011;59146;43.850;25.948;2022-11-10T05:03:05;40.47;;;23.75;;
71343;SDS011;59146;43.850;25.948;2022-11-10T05:05:32;55.40;;;25.77;;
71343;SDS011;59146;43.850;25.948;2022-11-10T05:07:57;47.20;;;23.60;;
71343;SDS011;59146;43.850;25.948;2022-11-10T05:10:23;52.40;;;25.50;;
71343;SDS011;59146;43.850;25.948;2022-11-10T05:12:53;59.28;;;24.30;;
71343;SDS011;59146;43.850;25.948;2022-11-10T05:15:21;48.47;;;24.10;;
71343;SDS011;59146;43.850;25.948;2022-11-10T05:17:51;39.42;;;23.95;;
71343;SDS011;59146;43.850;25.948;2022-11-10T05:20:18;39.63;;;21.92;;
71343;SDS011;59146;43.850;25.948;2022-11-10T05:22:48;36.92;;;22.92;;
71343;SDS011;59146;43.850;25.948;2022-11-10T05:25:34;31.70;;;21.92;;
71343;SDS011;59146;43.850;25.948;2022-11-10T05:28:02;44.33;;;22.33;;
71343;SDS011;59146;43.850;25.948;2022-11-10T05:30:28;36.22;;;22.73;;
71343;SDS011;59146;43.850;25.948;2022-11-10T05:32:53;42.40;;;22.85;;
71343;SDS011;59146;43.850;25.948;2022-11-10T05:35:19;38.20;;;22.00;;
71343;SDS011;59146;43.850;25.948;2022-11-10T05:37:44;41.70;;;23.77;;
71343;SDS011;59146;43.850;25.948;2022-11-10T05:40:10;44.88;;;23.08;;
71343;SDS011;59146;43.850;25.948;2022-11-10T05:42:42;37.15;;;23.10;;
71343;SDS011;59146;43.850;25.948;2022-11-10T05:45:08;42.67;;;23.63;;
71343;SDS011;59146;43.850;25.948;2022-11-10T05:47:35;43.67;;;23.27;;
71343;SDS011;59146;43.850;25.948;2022-11-10T05:50:01;37.38;;;22.85;;
71343;SDS011;59146;43.850;25.948;2022-11-10T05:52:27;38.90;;;22.27;;
71343;SDS011;59146;43.850;25.948;2022-11-10T05:54:52;38.75;;;22.52;;
71343;SDS011;59146;43.850;25.948;2022-11-10T05:57:19;38.22;;;21.27;;
71343;SDS011;59146;43.850;25.948;2022-11-10T05:59:45;46.30;;;21.98;;
71343;SDS011;59146;43.850;25.948;2022-11-10T06:02:10;55.65;;;23.58;;
71343;SDS011;59146;43.850;25.948;2022-11-10T06:04:36;35.40;;;21.45;;
71343;SDS011;59146;43.850;25.948;2022-11-10T06:07:01;35.10;;;21.58;;
71343;SDS011;59146;43.850;25.948;2022-11-10T06:09:26;43.63;;;22.00;;
71343;SDS011;59146;43.850;25.948;2022-11-10T06:11:52;40.50;;;22.73;;
71343;SDS011;59146;43.850;25.948;2022-11-10T06:14:17;49.15;;;27.15;;
71343;SDS011;59146;43.850;25.948;2022-11-10T06:16:42;49.17;;;25.77;;
71343;SDS011;59146;43.850;25.948;2022-11-10T06:19:08;42.22;;;27.33;;
71343;SDS011;59146;43.850;25.948;2022-11-10T06:21:33;40.25;;;26.92;;
71343;SDS011;59146;43.850;25.948;2022-11-10T06:23:59;43.70;;;26.42;;
71343;SDS011;59146;43.850;25.948;2022-11-10T06:26:24;52.85;;;29.40;;
71343;SDS011;59146;43.850;25.948;2022-11-10T06:28:49;54.58;;;29.77;;
71343;SDS011;59146;43.850;25.948;2022-11-10T06:31:15;57.30;;;32.97;;
71343;SDS011;59146;43.850;25.948;2022-11-10T06:33:40;50.47;;;32.28;;
71343;SDS011;59146;43.850;25.948;2022-11-10T06:36:07;57.20;;;32.38;;
71343;SDS011;59146;43.850;25.948;2022-11-10T06:38:33;44.33;;;29.05;;
71343;SDS011;59146;43.850;25.948;2022-11-10T06:40:58;45.97;;;28.05;;
71343;SDS011;59146;43.850;25.948;2022-11-10T06:43:24;41.65;;;26.92;;
71343;SDS011;59146;43.850;25.948;2022-11-10T06:45:49;47.22;;;28.77;;
71343;SDS011;59146;43.850;25.948;2022-11-10T06:48:15;44.90;;;26.13;;
71343;SDS011;59146;43.850;25.948;2022-11-10T06:50:40;48.92;;;30.02;;
71343;SDS011;59146;43.850;25.948;2022-11-10T06:53:06;49.67;;;30.50;;
71343;SDS011;59146;43.850;25.948;2022-11-10T06:55:31;40.75;;;27.90;;
71343;SDS011;59146;43.850;25.948;2022-11-10T06:57:57;49.65;;;29.35;;
71343;SDS011;59146;43.850;25.948;2022-11-10T07:00:23;45.97;;;28.70;;
71343;SDS011;59146;43.850;25.948;2022-11-10T07:02:59;49.63;;;29.05;;
71343;SDS011;59146;43.850;25.948;2022-11-10T07:05:25;47.83;;;28.73;;
71343;SDS011;59146;43.850;25.948;2022-11-10T07:07:50;49.47;;;31.05;;
71343;SDS011;59146;43.850;25.948;2022-11-10T07:10:16;44.88;;;29.85;;
71343;SDS011;59146;43.850;25.948;2022-11-10T07:12:41;44.20;;;29.30;;
71343;SDS011;59146;43.850;25.948;2022-11-10T07:15:07;46.78;;;28.67;;
71343;SDS011;59146;43.850;25.948;2022-11-10T07:17:37;48.60;;;29.38;;
71343;SDS011;59146;43.850;25.948;2022-11-10T07:20:06;44.35;;;30.48;;
71343;SDS011;59146;43.850;25.948;2022-11-10T07:22:32;51.20;;;27.95;;
71343;SDS011;59146;43.850;25.948;2022-11-10T07:24:57;45.33;;;26.45;;
71343;SDS011;59146;43.850;25.948;2022-11-10T07:27:23;43.88;;;27.23;;
71343;SDS011;59146;43.850;25.948;2022-11-10T07:29:48;46.72;;;26.65;;
71343;SDS011;59146;43.850;25.948;2022-11-10T07:32:13;42.20;;;26.15;;
71343;SDS011;59146;43.850;25.948;2022-11-10T07:34:39;50.13;;;27.67;;
71343;SDS011;59146;43.850;25.948;2022-11-10T07:37:04;44.15;;;26.67;;
71343;SDS011;59146;43.850;25.948;2022-11-10T07:39:30;47.90;;;26.40;;
71343;SDS011;59146;43.850;25.948;2022-11-10T07:41:55;46.45;;;25.92;;
71343;SDS011;59146;43.850;25.948;2022-11-10T07:44:22;48.65;;;24.98;;
71343;SDS011;59146;43.850;25.948;2022-11-10T07:46:47;43.80;;;25.67;;
71343;SDS011;59146;43.850;25.948;2022-11-10T07:49:13;41.30;;;25.40;;
71343;SDS011;59146;43.850;25.948;2022-11-10T07:51:38;46.85;;;25.10;;
71343;SDS011;59146;43.850;25.948;2022-11-10T07:54:04;48.20;;;24.73;;
71343;SDS011;59146;43.850;25.948;2022-11-10T07:56:29;50.08;;;25.60;;
71343;SDS011;59146;43.850;25.948;2022-11-10T07:58:54;52.47;;;25.80;;
71343;SDS011;59146;43.850;25.948;2022-11-10T08:01:20;55.85;;;26.33;;
71343;SDS011;59146;43.850;25.948;2022-11-10T08:03:45;62.03;;;24.90;;
71343;SDS011;59146;43.850;25.948;2022-11-10T08:06:11;51.95;;;25.42;;
71343;SDS011;59146;43.850;25.948;2022-11-10T08:08:36;74.63;;;27.08;;
71343;SDS011;59146;43.850;25.948;2022-11-10T08:11:01;60.28;;;25.98;;
71343;SDS011;59146;43.850;25.948;2022-11-10T08:13:27;51.90;;;25.60;;
71343;SDS011;59146;43.850;25.948;2022-11-10T08:15:52;64.82;;;32.85;;
71343;SDS011;59146;43.850;25.948;2022-11-10T08:18:19;51.58;;;25.27;;
71343;SDS011;59146;43.850;25.948;2022-11-10T08:20:46;42.40;;;25.25;;
71343;SDS011;59146;43.850;25.948;2022-11-10T08:23:12;39.20;;;25.63;;
71343;SDS011;59146;43.850;25.948;2022-11-10T08:25:38;37.63;;;24.60;;
71343;SDS011;59146;43.850;25.948;2022-11-10T08:28:05;48.38;;;26.33;;
71343;SDS011;59146;43.850;25.948;2022-11-10T08:30:34;36.42;;;26.40;;
71343;SDS011;59146;43.850;25.948;2022-11-10T08:33:01;48.42;;;27.90;;
71343;SDS011;59146;43.850;25.948;2022-11-10T08:35:29;49.78;;;27.50;;
71343;SDS011;59146;43.850;25.948;2022-11-10T08:37:55;43.22;;;26.20;;
71343;SDS011;59146;43.850;25.948;2022-11-10T08:40:21;38.67;;;25.70;;
71343;SDS011;59146;43.850;25.948;2022-11-10T08:42:57;33.80;;;24.87;;
71343;SDS011;59146;43.850;25.948;2022-11-10T08:45:23;37.30;;;25.27;;
71343;SDS011;59146;43.850;25.948;2022-11-10T08:47:56;42.92;;;25.40;;
71343;SDS011;59146;43.850;25.948;2022-11-10T08:50:26;41.80;;;26.08;;
71343;SDS011;59146;43.850;25.948;2022-11-10T08:52:52;41.65;;;26.52;;
71343;SDS011;59146;43.850;25.948;2022-11-10T08:55:17;47.53;;;28.02;;
71343;SDS011;59146;43.850;25.948;2022-11-10T08:57:44;40.63;;;28.13;;
71343;SDS011;59146;43.850;25.948;2022-11-10T09:00:11;40.42;;;26.98;;
71343;SDS011;59146;43.850;25.948;2022-11-10T09:02:37;45.25;;;27.48;;
71343;SDS011;59146;43.850;25.948;2022-11-10T09:05:03;43.75;;;27.00;;
71343;SDS011;59146;43.850;25.948;2022-11-10T09:07:29;41.65;;;26.02;;
71343;SDS011;59146;43.850;25.948;2022-11-10T09:09:55;49.42;;;24.75;;
71343;SDS011;59146;43.850;25.948;2022-11-10T09:12:20;38.97;;;24.42;;
71343;SDS011;59146;43.850;25.948;2022-11-10T09:14:46;37.72;;;24.55;;
71343;SDS011;59146;43.850;25.948;2022-11-10T09:17:11;37.58;;;25.15;;
71343;SDS011;59146;43.850;25.948;2022-11-10T09:19:37;40.75;;;25.88;;
71343;SDS011;59146;43.850;25.948;2022-11-10T09:22:02;63.45;;;25.35;;
71343;SDS011;59146;43.850;25.948;2022-11-10T09:24:28;42.17;;;27.35;;
71343;SDS011;59146;43.850;25.948;2022-11-10T09:26:53;40.25;;;25.15;;
71343;SDS011;59146;43.850;25.948;2022-11-10T09:29:19;38.50;;;25.20;;
71343;SDS011;59146;43.850;25.948;2022-11-10T09:31:45;41.92;;;23.83;;
71343;SDS011;59146;43.850;25.948;2022-11-10T09:34:11;33.10;;;24.05;;
71343;SDS011;59146;43.850;25.948;2022-11-10T09:36:36;35.13;;;23.45;;
71343;SDS011;59146;43.850;25.948;2022-11-10T09:39:04;33.35;;;23.77;;
71343;SDS011;59146;43.850;25.948;2022-11-10T09:41:30;33.20;;;23.73;;
71343;SDS011;59146;43.850;25.948;2022-11-10T09:46:43;42.20;;;26.02;;
71343;SDS011;59146;43.850;25.948;2022-11-10T09:49:34;39.67;;;25.20;;
71343;SDS011;59146;43.850;25.948;2022-11-10T09:52:00;41.45;;;25.20;;
71343;SDS011;59146;43.850;25.948;2022-11-10T09:54:32;34.08;;;22.73;;
71343;SDS011;59146;43.850;25.948;2022-11-10T09:57:01;35.00;;;23.83;;
71343;SDS011;59146;43.850;25.948;2022-11-10T09:59:29;32.67;;;22.83;;
71343;SDS011;59146;43.850;25.948;2022-11-10T10:02:01;34.80;;;23.98;;
71343;SDS011;59146;43.850;25.948;2022-11-10T10:05:02;35.15;;;24.05;;
71343;SDS011;59146;43.850;25.948;2022-11-10T10:10:40;35.08;;;23.85;;
71343;SDS011;59146;43.850;25.948;2022-11-10T10:16:35;38.30;;;24.20;;
71343;SDS011;59146;43.850;25.948;2022-11-10T10:19:25;41.88;;;25.20;;
71343;SDS011;59146;43.850;25.948;2022-11-10T10:24:23;32.92;;;22.83;;
71343;SDS011;59146;43.850;25.948;2022-11-10T10:26:57;35.95;;;24.30;;
71343;SDS011;59146;43.850;25.948;2022-11-10T10:29:27;38.45;;;26.42;;
71343;SDS011;59146;43.850;25.948;2022-11-10T10:31:56;41.55;;;26.40;;
71343;SDS011;59146;43.850;25.948;2022-11-10T10:34:28;52.08;;;27.70;;
71343;SDS011;59146;43.850;25.948;2022-11-10T10:36:55;39.47;;;26.08;;
71343;SDS011;59146;43.850;25.948;2022-11-10T10:41:54;45.55;;;30.38;;
71343;SDS011;59146;43.850;25.948;2022-11-10T10:44:20;44.72;;;28.65;;
71343;SDS011;59146;43.850;25.948;2022-11-10T10:51:42;45.60;;;28.83;;
71343;SDS011;59146;43.850;25.948;2022-11-10T10:54:21;44.25;;;28.90;;
71343;SDS011;59146;43.850;25.948;2022-11-10T10:56:59;47.13;;;28.05;;
71343;SDS011;59146;43.850;25.948;2022-11-10T10:59:26;44.53;;;28.60;;
71343;SDS011;59146;43.850;25.948;2022-11-10T11:01:52;49.55;;;27.38;;
71343;SDS011;59146;43.850;25.948;2022-11-10T11:04:26;39.05;;;26.80;;
71343;SDS011;59146;43.850;25.948;2022-11-10T11:06:58;36.80;;;26.30;;
71343;SDS011;59146;43.850;25.948;2022-11-10T11:09:26;41.00;;;25.90;;
71343;SDS011;59146;43.850;25.948;2022-11-10T11:12:04;43.38;;;28.35;;
71343;SDS011;59146;43.850;25.948;2022-11-10T11:14:35;43.28;;;27.98;;
71343;SDS011;59146;43.850;25.948;2022-11-10T11:17:02;46.55;;;28.58;;
71343;SDS011;59146;43.850;25.948;2022-11-10T11:19:36;41.22;;;26.52;;
71343;SDS011;59146;43.850;25.948;2022-11-10T11:22:08;43.45;;;27.67;;
71343;SDS011;59146;43.850;25.948;2022-11-10T11:27:12;40.08;;;25.75;;
71343;SDS011;59146;43.850;25.948;2022-11-10T11:38:14;35.63;;;23.00;;
71343;SDS011;59146;43.850;25.948;2022-11-10T11:49:30;34.80;;;24.00;;
71343;SDS011;59146;43.850;25.948;2022-11-10T11:52:33;43.65;;;24.58;;
71343;SDS011;59146;43.850;25.948;2022-11-10T12:00:27;35.08;;;22.00;;
71343;SDS011;59146;43.850;25.948;2022-11-10T12:13:35;39.40;;;25.15;;
71343;SDS011;59146;43.850;25.948;2022-11-10T12:16:14;37.22;;;23.08;;
71343;SDS011;59146;43.850;25.948;2022-11-10T12:21:47;30.90;;;22.88;;
71343;SDS011;59146;43.850;25.948;2022-11-10T12:30:08;32.85;;;21.20;;
71343;SDS011;59146;43.850;25.948;2022-11-10T12:32:38;39.83;;;27.33;;
71343;SDS011;59146;43.850;25.948;2022-11-10T12:37:43;36.10;;;22.58;;
71343;SDS011;59146;43.850;25.948;2022-11-10T12:40:20;31.67;;;21.52;;
71343;SDS011;59146;43.850;25.948;2022-11-10T12:42:54;32.35;;;20.95;;
71343;SDS011;59146;43.850;25.948;2022-11-10T12:45:25;32.90;;;21.08;;
71343;SDS011;59146;43.850;25.948;2022-11-10T12:47:59;32.60;;;20.98;;
71343;SDS011;59146;43.850;25.948;2022-11-10T12:53:28;30.92;;;20.35;;
71343;SDS011;59146;43.850;25.948;2022-11-10T12:55:58;32.40;;;20.08;;
71343;SDS011;59146;43.850;25.948;2022-11-10T12:58:29;42.30;;;20.50;;
71343;SDS011;59146;43.850;25.948;2022-11-10T13:03:32;33.85;;;20.52;;
71343;SDS011;59146;43.850;25.948;2022-11-10T13:06:04;28.60;;;19.15;;
71343;SDS011;59146;43.850;25.948;2022-11-10T13:13:43;36.13;;;20.30;;
71343;SDS011;59146;43.850;25.948;2022-11-10T13:16:56;30.05;;;18.48;;
71343;SDS011;59146;43.850;25.948;2022-11-10T13:19:03;33.60;;;19.20;;
71343;SDS011;59146;43.850;25.948;2022-11-10T13:24:49;30.17;;;18.77;;
71343;SDS011;59146;43.850;25.948;2022-11-10T13:27:11;33.17;;;20.15;;
71343;SDS011;59146;43.850;25.948;2022-11-10T13:32:22;31.45;;;19.15;;
71343;SDS011;59146;43.850;25.948;2022-11-10T13:35:42;30.17;;;18.73;;
71343;SDS011;59146;43.850;25.948;2022-11-10T13:37:52;33.15;;;18.90;;
71343;SDS011;59146;43.850;25.948;2022-11-10T13:47:59;27.15;;;17.05;;
71343;SDS011;59146;43.850;25.948;2022-11-10T13:58:48;37.45;;;19.40;;
71343;SDS011;59146;43.850;25.948;2022-11-10T14:06:11;29.98;;;18.50;;
71343;SDS011;59146;43.850;25.948;2022-11-10T14:08:46;28.95;;;18.75;;
71343;SDS011;59146;43.850;25.948;2022-11-10T14:11:24;36.78;;;19.48;;
71343;SDS011;59146;43.850;25.948;2022-11-10T14:13:59;37.78;;;19.08;;
71343;SDS011;59146;43.850;25.948;2022-11-10T14:16:34;30.70;;;18.15;;
71343;SDS011;59146;43.850;25.948;2022-11-10T14:19:17;41.20;;;19.70;;
71343;SDS011;59146;43.850;25.948;2022-11-10T14:21:47;29.88;;;18.75;;
71343;SDS011;59146;43.850;25.948;2022-11-10T14:24:23;34.92;;;19.33;;
71343;SDS011;59146;43.850;25.948;2022-11-10T14:26:53;34.95;;;19.80;;
71343;SDS011;59146;43.850;25.948;2022-11-10T14:29:26;34.43;;;19.90;;
71343;SDS011;59146;43.850;25.948;2022-11-10T14:31:53;35.10;;;19.42;;
71343;SDS011;59146;43.850;25.948;2022-11-10T14:34:19;34.50;;;19.70;;
71343;SDS011;59146;43.850;25.948;2022-11-10T14:36:54;33.85;;;20.92;;
71343;SDS011;59146;43.850;25.948;2022-11-10T14:39:24;34.88;;;20.00;;
71343;SDS011;59146;43.850;25.948;2022-11-10T14:41:53;46.75;;;19.33;;
71343;SDS011;59146;43.850;25.948;2022-11-10T14:44:24;40.35;;;20.52;;
71343;SDS011;59146;43.850;25.948;2022-11-10T14:46:51;35.35;;;20.05;;
71343;SDS011;59146;43.850;25.948;2022-11-10T14:49:21;29.92;;;19.52;;
71343;SDS011;59146;43.850;25.948;2022-11-10T14:51:50;39.13;;;19.67;;
71343;SDS011;59146;43.850;25.948;2022-11-10T14:54:22;36.13;;;19.60;;
71343;SDS011;59146;43.850;25.948;2022-11-10T14:56:50;86.25;;;26.27;;
71343;SDS011;59146;43.850;25.948;2022-11-10T14:59:16;46.85;;;20.77;;
71343;SDS011;59146;43.850;25.948;2022-11-10T15:02:00;37.30;;;19.33;;
71343;SDS011;59146;43.850;25.948;2022-11-10T15:04:30;42.67;;;20.15;;
71343;SDS011;59146;43.850;25.948;2022-11-10T15:06:57;33.08;;;19.95;;
71343;SDS011;59146;43.850;25.948;2022-11-10T15:09:25;40.67;;;20.48;;
71343;SDS011;59146;43.850;25.948;2022-11-10T15:17:11;39.97;;;20.98;;
71343;SDS011;59146;43.850;25.948;2022-11-10T15:24:42;44.80;;;24.42;;
71343;SDS011;59146;43.850;25.948;2022-11-10T15:27:11;54.10;;;24.35;;
71343;SDS011;59146;43.850;25.948;2022-11-10T15:29:45;51.60;;;26.80;;
71343;SDS011;59146;43.850;25.948;2022-11-10T15:32:13;46.28;;;26.20;;
71343;SDS011;59146;43.850;25.948;2022-11-10T15:34:41;58.15;;;29.80;;
71343;SDS011;59146;43.850;25.948;2022-11-10T15:45:35;51.63;;;27.25;;
71343;SDS011;59146;43.850;25.948;2022-11-10T15:48:02;70.93;;;31.73;;
71343;SDS011;59146;43.850;25.948;2022-11-10T15:50:28;55.45;;;30.20;;
71343;SDS011;59146;43.850;25.948;2022-11-10T15:52:54;73.13;;;30.98;;
71343;SDS011;59146;43.850;25.948;2022-11-10T15:55:20;65.97;;;32.03;;
71343;SDS011;59146;43.850;25.948;2022-11-10T15:57:47;70.43;;;33.83;;
71343;SDS011;59146;43.850;25.948;2022-11-10T16:00:12;62.42;;;33.90;;
71343;SDS011;59146;43.850;25.948;2022-11-10T16:02:38;70.75;;;35.55;;
71343;SDS011;59146;43.850;25.948;2022-11-10T16:05:11;71.00;;;37.80;;
71343;SDS011;59146;43.850;25.948;2022-11-10T16:07:36;85.57;;;38.30;;
71343;SDS011;59146;43.850;25.948;2022-11-10T16:10:02;71.88;;;34.45;;
71343;SDS011;59146;43.850;25.948;2022-11-10T16:12:29;75.53;;;38.58;;
71343;SDS011;59146;43.850;25.948;2022-11-10T16:14:55;89.65;;;42.13;;
71343;SDS011;59146;43.850;25.948;2022-11-10T16:17:20;78.00;;;39.50;;
71343;SDS011;59146;43.850;25.948;2022-11-10T16:19:46;90.47;;;43.40;;
71343;SDS011;59146;43.850;25.948;2022-11-10T16:22:12;84.30;;;45.30;;
71343;SDS011;59146;43.850;25.948;2022-11-10T16:24:38;102.40;;;48.70;;
71343;SDS011;59146;43.850;25.948;2022-11-10T16:27:04;110.80;;;49.83;;